createdAt,value
2022-11-24T00:00:52.916Z,74.28
2022-11-24T00:02:27.446Z,74.39
2022-11-24T00:04:08.503Z,74.34
2022-11-24T00:05:41.735Z,74.48
2022-11-24T00:07:16.138Z,74.55
2022-11-24T00:08:54.934Z,74.19
2022-11-24T00:13:19.240Z,74.05
2022-11-24T00:15:39.988Z,74.36
2022-11-24T00:17:50.457Z,74.23
2022-11-24T00:19:50.492Z,74.29
2022-11-24T00:22:14.018Z,74.26
2022-11-24T00:23:47.447Z,73.84
2022-11-24T00:27:49.225Z,73.92
2022-11-24T00:29:29.357Z,73.87
2022-11-24T00:30:53.670Z,74.03
2022-11-24T00:32:21.731Z,74.02
2022-11-24T00:33:47.314Z,74.11
2022-11-24T00:35:11.723Z,74.32
2022-11-24T00:36:36.738Z,74.07
2022-11-24T00:37:58.377Z,74.15
2022-11-24T00:39:20.643Z,74.30
2022-11-24T00:40:44.282Z,74.11
2022-11-24T00:42:06.812Z,74.27
2022-11-24T00:43:31.418Z,74.25
2022-11-24T00:44:57.222Z,74.07
2022-11-24T00:46:19.995Z,74.12
2022-11-24T00:47:48.368Z,74.26
2022-11-24T00:49:17.367Z,74.27
2022-11-24T00:50:38.881Z,74.09
2022-11-24T00:52:02.686Z,74.27
2022-11-24T00:53:32.319Z,74.17
2022-11-24T00:55:01.752Z,74.13
2022-11-24T00:56:25.436Z,74.06
2022-11-24T00:57:55.025Z,74.07
2022-11-24T00:59:47.997Z,74.00
2022-11-24T01:01:21.582Z,73.77
2022-11-24T01:02:52.234Z,73.74
2022-11-24T01:04:17.632Z,73.85
2022-11-24T01:05:44.419Z,73.69
2022-11-24T01:07:06.930Z,73.73
2022-11-24T01:08:32.865Z,73.76
2022-11-24T01:09:54.626Z,73.63
2022-11-24T01:11:24.304Z,73.88
2022-11-24T01:12:50.868Z,73.87
2022-11-24T01:14:22.939Z,73.96
2022-11-24T01:15:45.638Z,73.89
2022-11-24T01:17:09.993Z,73.66
2022-11-24T01:18:46.386Z,73.72
2022-11-24T01:24:14.746Z,73.57
2022-11-24T01:25:45.767Z,73.52
2022-11-24T01:27:09.870Z,73.50
2022-11-24T01:28:31.358Z,73.63
2022-11-24T01:29:56.970Z,73.31
2022-11-24T01:31:18.709Z,73.46
2022-11-24T01:32:47.886Z,73.38
2022-11-24T01:34:09.294Z,73.30
2022-11-24T01:35:32.036Z,73.33
2022-11-24T01:36:52.994Z,73.30
2022-11-24T01:38:18.631Z,73.24
2022-11-24T01:39:42.618Z,73.58
2022-11-24T01:41:05.265Z,73.24
2022-11-24T01:42:27.502Z,73.17
2022-11-24T01:43:49.284Z,73.06
2022-11-24T01:45:44.952Z,73.33
2022-11-24T01:47:21.317Z,72.99
2022-11-24T01:48:47.223Z,73.17
2022-11-24T01:50:15.959Z,73.04
2022-11-24T01:51:44.548Z,72.90
2022-11-24T01:53:07.168Z,73.03
2022-11-24T01:54:33.504Z,73.08
2022-11-24T01:55:55.469Z,73.16
2022-11-24T01:57:19.389Z,73.04
2022-11-24T01:58:43.926Z,73.00
2022-11-24T02:00:09.512Z,72.95
2022-11-24T02:01:39.535Z,73.00
2022-11-24T02:03:03.239Z,72.82
2022-11-24T02:04:34.998Z,73.17
2022-11-24T02:06:02.973Z,72.92
2022-11-24T02:07:51.207Z,72.98
2022-11-24T02:09:52.791Z,72.87
2022-11-24T02:11:42.920Z,73.08
2022-11-24T02:13:53.388Z,72.93
2022-11-24T02:18:29.850Z,72.93
2022-11-24T02:23:21.545Z,72.86
2022-11-24T02:28:20.044Z,72.77
2022-11-24T02:30:16.743Z,72.72
2022-11-24T02:33:58.247Z,72.94
2022-11-24T02:36:19.836Z,72.93
2022-11-24T02:38:01.166Z,72.96
2022-11-24T02:39:40.793Z,72.95
2022-11-24T02:41:19.597Z,73.01
2022-11-24T02:43:09.495Z,73.03
2022-11-24T02:44:58.425Z,72.88
2022-11-24T02:46:19.878Z,72.80
2022-11-24T02:47:42.135Z,72.64
2022-11-24T02:49:17.799Z,72.54
2022-11-24T02:50:40.174Z,72.65
2022-11-24T02:52:03.021Z,72.65
2022-11-24T02:53:25.512Z,72.65
2022-11-24T02:54:49.844Z,72.80
2022-11-24T02:56:15.465Z,72.70
2022-11-24T02:57:37.175Z,72.81
2022-11-24T02:59:02.887Z,72.75
2022-11-24T03:00:24.413Z,72.49
2022-11-24T03:01:47.058Z,72.59
2022-11-24T03:03:11.417Z,72.73
2022-11-24T03:07:46.055Z,72.75
2022-11-24T03:09:08.615Z,72.80
2022-11-24T03:10:31.165Z,72.78
2022-11-24T03:11:55.276Z,73.02
2022-11-24T03:13:17.426Z,73.22
2022-11-24T03:14:40.786Z,72.90
2022-11-24T03:16:05.806Z,73.12
2022-11-24T03:17:30.714Z,73.19
2022-11-24T03:18:53.523Z,73.08
2022-11-24T03:20:22.553Z,73.13
2022-11-24T03:22:03.771Z,72.99
2022-11-24T03:23:30.431Z,73.18
2022-11-24T03:25:48.516Z,72.96
2022-11-24T03:27:19.323Z,72.81
2022-11-24T03:28:41.323Z,72.99
2022-11-24T03:30:03.504Z,72.89
2022-11-24T03:31:25.204Z,72.73
2022-11-24T03:32:52.333Z,72.78
2022-11-24T03:34:13.545Z,72.79
2022-11-24T03:35:35.909Z,72.75
2022-11-24T03:36:58.772Z,72.51
2022-11-24T03:38:20.171Z,72.70
2022-11-24T03:39:42.933Z,72.58
2022-11-24T03:41:04.954Z,72.45
2022-11-24T03:42:28.637Z,72.48
2022-11-24T03:45:49.318Z,72.32
2022-11-24T03:47:14.248Z,72.28
2022-11-24T03:48:36.270Z,72.19
2022-11-24T03:49:58.369Z,72.29
2022-11-24T03:51:54.812Z,72.05
2022-11-24T03:56:53.551Z,72.09
2022-11-24T03:58:44.901Z,72.13
2022-11-24T04:00:24.237Z,71.96
2022-11-24T04:07:52.959Z,72.00
2022-11-24T04:23:53.453Z,71.92
2022-11-24T04:31:56.556Z,72.07
2022-11-24T04:36:58.309Z,72.36
2022-11-24T04:41:39.123Z,72.25
2022-11-24T04:58:31.586Z,71.99
2022-11-24T05:04:00.633Z,72.07
2022-11-24T05:11:19.996Z,71.73
2022-11-24T05:14:28.491Z,71.92
2022-11-24T05:17:14.494Z,71.83
2022-11-24T05:34:16.786Z,72.72
2022-11-24T06:16:33.741Z,73.23
2022-11-24T06:21:11.988Z,73.22
2022-11-24T06:22:39.631Z,73.41
2022-11-24T06:24:03.905Z,73.20
2022-11-24T06:25:26.589Z,73.37
2022-11-24T06:26:48.095Z,73.51
2022-11-24T06:28:18.122Z,73.54
2022-11-24T06:30:36.693Z,73.76
2022-11-24T06:32:06.748Z,73.70
2022-11-24T06:34:01.833Z,73.50
2022-11-24T06:36:04.212Z,73.72
2022-11-24T06:41:23.735Z,73.10
2022-11-24T06:42:59.919Z,73.50
2022-11-24T06:47:19.895Z,73.55
2022-11-24T06:49:01.738Z,73.32
2022-11-24T06:50:42.337Z,73.65
2022-11-24T06:52:28.423Z,73.62
2022-11-24T06:54:00.800Z,73.61
2022-11-24T06:55:33.909Z,73.64
2022-11-24T06:56:58.752Z,73.69
2022-11-24T06:58:21.508Z,73.82
2022-11-24T06:59:44.655Z,73.76
2022-11-24T07:01:07.905Z,73.85
2022-11-24T07:02:34.548Z,73.95
2022-11-24T07:03:58.586Z,73.71
2022-11-24T07:05:22.139Z,73.72
2022-11-24T07:06:44.702Z,73.71
2022-11-24T07:08:07.238Z,73.67
2022-11-24T07:09:29.182Z,73.49
2022-11-24T07:10:53.390Z,73.36
2022-11-24T07:12:18.092Z,73.63
2022-11-24T07:13:59.659Z,73.30
2022-11-24T07:15:22.316Z,73.23
2022-11-24T07:16:45.019Z,73.39
2022-11-24T07:18:12.611Z,73.26
2022-11-24T07:19:34.500Z,73.21
2022-11-24T07:20:56.888Z,72.96
2022-11-24T07:22:19.306Z,72.92
2022-11-24T07:23:48.539Z,72.77
2022-11-24T07:25:14.718Z,72.81
2022-11-24T07:26:38.414Z,72.59
2022-11-24T07:28:00.999Z,72.50
2022-11-24T07:29:22.839Z,72.57
2022-11-24T07:30:45.178Z,72.43
2022-11-24T07:32:13.778Z,72.27
2022-11-24T07:33:36.308Z,72.20
2022-11-24T07:34:57.731Z,72.22
2022-11-24T07:36:20.808Z,72.23
2022-11-24T07:37:50.849Z,72.22
2022-11-24T07:39:15.275Z,71.99
2022-11-24T07:40:39.363Z,72.12
2022-11-24T07:42:05.417Z,71.97
2022-11-24T07:43:27.697Z,71.97
2022-11-24T07:44:49.780Z,71.95
2022-11-24T07:46:51.792Z,71.95
2022-11-24T07:48:19.803Z,71.93
2022-11-24T07:49:41.808Z,71.78
2022-11-24T07:51:04.638Z,71.70
2022-11-24T07:52:27.058Z,71.57
2022-11-24T07:53:49.421Z,71.35
2022-11-24T07:55:11.858Z,71.43
2022-11-24T07:56:33.825Z,71.37
2022-11-24T07:58:00.706Z,71.32
2022-11-24T07:59:22.870Z,71.38
2022-11-24T08:00:45.700Z,71.06
2022-11-24T08:02:08.137Z,71.25
2022-11-24T08:03:30.306Z,71.30
2022-11-24T08:04:52.197Z,70.99
2022-11-24T08:06:31.884Z,70.83
2022-11-24T08:08:06.327Z,70.89
2022-11-24T08:09:46.528Z,71.05
2022-11-24T08:11:10.690Z,70.74
2022-11-24T08:12:33.159Z,70.67
2022-11-24T08:13:57.243Z,70.68
2022-11-24T08:15:20.024Z,70.44
2022-11-24T08:16:49.994Z,70.74
2022-11-24T08:18:14.280Z,70.35
2022-11-24T08:26:05.324Z,69.82
2022-11-24T08:27:27.890Z,69.74
2022-11-24T08:28:54.278Z,69.48
2022-11-24T08:30:18.460Z,69.78
2022-11-24T08:31:46.786Z,69.93
2022-11-24T08:33:09.451Z,69.96
2022-11-24T08:34:35.156Z,70.15
2022-11-24T08:35:58.021Z,70.44
2022-11-24T08:37:21.615Z,70.48
2022-11-24T08:38:44.906Z,70.72
2022-11-24T08:40:08.316Z,70.85
2022-11-24T08:41:31.532Z,70.68
2022-11-24T08:42:53.763Z,70.91
2022-11-24T08:44:18.339Z,70.72
2022-11-24T08:45:54.668Z,70.67
2022-11-24T08:47:19.992Z,70.73
2022-11-24T08:48:45.254Z,70.52
2022-11-24T08:50:08.244Z,70.54
2022-11-24T08:51:31.244Z,70.30
2022-11-24T08:52:55.746Z,70.19
2022-11-24T08:54:21.899Z,70.22
2022-11-24T08:55:44.179Z,70.31
2022-11-24T08:57:06.449Z,70.10
2022-11-24T08:58:29.586Z,69.90
2022-11-24T08:59:51.552Z,69.79
2022-11-24T09:01:17.998Z,69.69
2022-11-24T09:02:40.229Z,69.50
2022-11-24T09:04:02.580Z,69.47
2022-11-24T09:05:50.569Z,69.40
2022-11-24T09:07:07.562Z,69.43
2022-11-24T09:08:31.578Z,69.11
2022-11-24T09:09:53.762Z,69.34
2022-11-24T09:11:16.520Z,69.21
2022-11-24T09:12:38.776Z,69.11
2022-11-24T09:14:08.627Z,68.87
2022-11-24T09:15:39.268Z,68.87
2022-11-24T09:17:03.368Z,68.81
2022-11-24T09:18:30.689Z,68.66
2022-11-24T09:20:07.516Z,68.62
2022-11-24T09:21:36.383Z,68.77
2022-11-24T09:22:58.714Z,68.77
2022-11-24T09:24:22.256Z,68.63
2022-11-24T09:25:49.437Z,68.44
2022-11-24T09:27:11.279Z,68.44
2022-11-24T09:28:32.680Z,68.20
2022-11-24T09:29:57.776Z,68.20
2022-11-24T09:31:20.407Z,68.11
2022-11-24T09:32:43.712Z,67.75
2022-11-24T09:34:07.668Z,67.66
2022-11-24T09:35:29.515Z,67.31
2022-11-24T09:36:51.875Z,67.20
2022-11-24T09:38:14.171Z,67.00
2022-11-24T09:39:36.364Z,66.75
2022-11-24T09:41:13.030Z,66.39
2022-11-24T09:42:49.299Z,66.36
2022-11-24T09:45:05.437Z,66.52
2022-11-24T09:46:34.704Z,66.37
2022-11-24T09:48:02.261Z,66.23
2022-11-24T09:49:32.581Z,66.19
2022-11-24T09:50:55.686Z,65.93
2022-11-24T09:52:34.584Z,65.87
2022-11-24T09:54:07.213Z,65.52
2022-11-24T09:55:46.066Z,65.64
2022-11-24T09:57:13.705Z,65.21
2022-11-24T09:58:43.656Z,64.90
2022-11-24T10:02:03.566Z,64.43
2022-11-24T10:08:30.195Z,63.81
2022-11-24T10:12:54.473Z,63.68
2022-11-24T10:14:44.759Z,63.25
2022-11-24T10:16:16.929Z,62.87
2022-11-24T10:17:57.611Z,62.53
2022-11-24T10:19:38.310Z,62.49
2022-11-24T10:21:32.989Z,62.62
2022-11-24T10:23:13.041Z,62.70
2022-11-24T10:25:20.836Z,62.60
2022-11-24T10:28:23.797Z,62.13
2022-11-24T10:33:30.853Z,61.98
2022-11-24T10:35:12.976Z,62.58
2022-11-24T10:36:45.431Z,62.69
2022-11-24T10:38:31.756Z,62.86
2022-11-24T10:40:00.720Z,63.15
2022-11-24T10:41:34.508Z,63.18
2022-11-24T10:42:59.577Z,63.23
2022-11-24T10:44:23.656Z,62.98
2022-11-24T10:45:47.396Z,62.96
2022-11-24T10:47:26.795Z,62.99
2022-11-24T10:49:11.336Z,62.88
2022-11-24T10:50:42.162Z,62.95
2022-11-24T10:52:11.523Z,62.85
2022-11-24T10:53:43.661Z,62.66
2022-11-24T10:55:09.891Z,62.83
2022-11-24T10:56:52.636Z,62.91
2022-11-24T10:58:21.585Z,62.86
2022-11-24T11:02:41.635Z,63.10
2022-11-24T11:04:18.979Z,62.92
2022-11-24T11:05:55.873Z,63.12
2022-11-24T11:07:36.985Z,62.86
2022-11-24T11:09:32.500Z,62.80
2022-11-24T11:11:53.169Z,62.93
2022-11-24T11:13:38.271Z,63.09
2022-11-24T11:15:23.186Z,63.16
2022-11-24T11:16:51.014Z,63.07
2022-11-24T11:18:17.981Z,63.14
2022-11-24T11:19:50.262Z,63.17
2022-11-24T11:21:31.420Z,63.21
2022-11-24T11:22:57.948Z,63.07
2022-11-24T11:24:22.434Z,63.08
2022-11-24T11:25:52.095Z,63.19
2022-11-24T11:31:20.301Z,63.14
2022-11-24T11:38:47.104Z,63.13
2022-11-24T11:40:47.819Z,63.07
2022-11-24T11:42:53.763Z,63.30
2022-11-24T11:44:37.812Z,63.22
2022-11-24T11:46:10.129Z,63.25
2022-11-24T11:47:42.810Z,63.24
2022-11-24T11:49:08.968Z,63.38
2022-11-24T11:51:06.786Z,63.27
2022-11-24T11:53:13.633Z,63.53
2022-11-24T11:55:35.880Z,63.49
2022-11-24T11:57:18.862Z,63.34
2022-11-24T11:59:13.635Z,63.61
2022-11-24T12:00:44.474Z,63.72
2022-11-24T12:02:51.660Z,63.51
2022-11-24T12:08:31.333Z,63.58
2022-11-24T12:15:34.157Z,63.41
2022-11-24T12:17:05.661Z,63.26
2022-11-24T12:18:58.727Z,63.37
2022-11-24T12:21:12.719Z,63.10
2022-11-24T12:22:45.232Z,63.25
2022-11-24T12:24:24.813Z,62.91
2022-11-24T12:28:34.881Z,62.91
2022-11-24T12:30:11.288Z,62.65
2022-11-24T12:31:56.550Z,62.56
2022-11-24T12:34:18.830Z,62.61
2022-11-24T12:35:54.986Z,62.60
2022-11-24T12:38:20.699Z,62.76
2022-11-24T12:40:04.820Z,62.57
2022-11-24T12:56:52.857Z,62.88
2022-11-24T12:58:30.670Z,62.96
2022-11-24T13:00:18.501Z,63.01
2022-11-24T13:02:21.977Z,63.10
2022-11-24T13:04:07.431Z,63.17
2022-11-24T13:05:56.109Z,63.08
2022-11-24T13:07:23.213Z,63.20
2022-11-24T13:09:02.959Z,63.21
2022-11-24T13:10:56.343Z,63.32
2022-11-24T13:12:38.783Z,63.30
2022-11-24T13:14:49.106Z,63.24
2022-11-24T13:16:36.303Z,63.18
2022-11-24T13:18:12.453Z,63.35
2022-11-24T13:20:45.056Z,63.33
2022-11-24T13:22:56.368Z,63.47
2022-11-24T13:24:36.141Z,63.71
2022-11-24T13:26:31.427Z,63.69
2022-11-24T13:28:00.105Z,63.68
2022-11-24T13:29:43.519Z,63.92
2022-11-24T13:31:13.439Z,63.78
2022-11-24T13:33:08.230Z,64.00
2022-11-24T13:35:32.829Z,63.97
2022-11-24T13:39:41.169Z,64.05
2022-11-24T13:41:06.264Z,63.98
2022-11-24T13:43:04.156Z,63.96
2022-11-24T13:45:08.011Z,63.99
2022-11-24T13:47:27.153Z,64.19
2022-11-24T13:52:41.956Z,64.52
2022-11-24T14:01:31.859Z,64.73
2022-11-24T14:04:31.884Z,65.01
2022-11-24T14:06:25.177Z,64.94
2022-11-24T14:08:59.690Z,65.00
2022-11-24T14:11:31.446Z,65.03
2022-11-24T14:13:41.887Z,65.23
2022-11-24T14:16:01.223Z,65.28
2022-11-24T14:17:42.207Z,65.22
2022-11-24T14:19:13.242Z,65.23
2022-11-24T14:20:36.488Z,65.34
2022-11-24T14:21:59.144Z,65.21
2022-11-24T14:23:31.694Z,65.45
2022-11-24T14:25:07.669Z,65.49
2022-11-24T14:26:44.278Z,65.52
2022-11-24T14:28:31.741Z,65.62
2022-11-24T14:30:08.539Z,65.59
2022-11-24T14:31:36.577Z,65.45
2022-11-24T14:32:59.006Z,65.64
2022-11-24T14:34:41.308Z,65.86
2022-11-24T14:36:26.499Z,65.78
2022-11-24T14:37:49.292Z,65.97
2022-11-24T14:39:15.823Z,65.83
2022-11-24T14:40:46.589Z,66.05
2022-11-24T14:42:20.161Z,66.16
2022-11-24T14:43:43.092Z,66.35
2022-11-24T14:45:11.295Z,66.39
2022-11-24T14:46:36.166Z,66.32
2022-11-24T14:48:03.821Z,66.58
2022-11-24T14:49:36.090Z,66.76
2022-11-24T14:51:15.163Z,66.77
2022-11-24T14:52:46.667Z,66.81
2022-11-24T14:54:28.183Z,66.77
2022-11-24T14:56:21.505Z,66.86
2022-11-24T14:57:48.521Z,66.81
2022-11-24T14:59:26.610Z,66.53
2022-11-24T15:01:11.229Z,66.84
2022-11-24T15:02:44.413Z,66.91
2022-11-24T15:04:32.339Z,66.88
2022-11-24T15:06:04.617Z,67.11
2022-11-24T15:07:30.255Z,67.14
2022-11-24T15:08:52.957Z,67.21
2022-11-24T15:10:35.515Z,67.21
2022-11-24T15:12:48.406Z,67.34
2022-11-24T15:14:39.427Z,67.47
2022-11-24T15:16:04.952Z,67.52
2022-11-24T15:17:40.415Z,67.54
2022-11-24T15:19:12.090Z,67.55
2022-11-24T15:20:51.112Z,67.70
2022-11-24T15:22:38.171Z,67.64
2022-11-24T15:24:08.958Z,67.76
2022-11-24T15:25:37.498Z,67.84
2022-11-24T15:27:03.197Z,67.77
2022-11-24T15:28:29.842Z,67.82
2022-11-24T15:29:52.144Z,68.11
2022-11-24T15:31:30.960Z,68.40
2022-11-24T15:32:56.878Z,68.12
2022-11-24T15:36:35.206Z,68.09
2022-11-24T15:38:02.643Z,68.21
2022-11-24T15:39:24.999Z,68.24
2022-11-24T15:40:50.188Z,68.20
2022-11-24T15:42:14.531Z,68.39
2022-11-24T15:43:57.611Z,68.47
2022-11-24T15:45:24.089Z,68.19
2022-11-24T15:46:46.336Z,68.46
2022-11-24T15:48:12.372Z,68.73
2022-11-24T15:49:41.371Z,68.71
2022-11-24T15:51:07.486Z,68.78
2022-11-24T15:52:29.826Z,68.97
2022-11-24T15:54:00.401Z,68.81
2022-11-24T15:55:25.549Z,68.89
2022-11-24T15:56:50.509Z,68.84
2022-11-24T15:58:14.292Z,68.90
2022-11-24T15:59:39.372Z,68.99
2022-11-24T16:01:01.917Z,69.03
2022-11-24T16:02:29.053Z,68.95
2022-11-24T16:03:51.914Z,68.88
2022-11-24T16:05:27.304Z,69.18
2022-11-24T16:06:58.703Z,69.24
2022-11-24T16:08:21.179Z,69.05
2022-11-24T16:09:44.962Z,69.18
2022-11-24T16:11:06.467Z,68.89
2022-11-24T16:12:32.206Z,69.08
2022-11-24T16:13:54.934Z,69.18
2022-11-24T16:15:17.534Z,69.41
2022-11-24T16:16:41.183Z,69.23
2022-11-24T16:18:11.692Z,69.41
2022-11-24T16:19:41.675Z,69.19
2022-11-24T16:21:27.148Z,69.45
2022-11-24T16:23:07.057Z,69.29
2022-11-24T16:24:38.677Z,69.37
2022-11-24T16:26:09.154Z,69.44
2022-11-24T16:27:35.894Z,69.62
2022-11-24T16:29:04.584Z,69.63
2022-11-24T16:30:29.474Z,69.73
2022-11-24T16:31:59.332Z,69.70
2022-11-24T16:33:26.049Z,69.75
2022-11-24T16:34:50.164Z,69.78
2022-11-24T16:36:21.963Z,69.83
2022-11-24T16:37:51.859Z,69.75
2022-11-24T16:39:31.552Z,69.67
2022-11-24T16:48:37.246Z,69.64
2022-11-24T17:07:22.606Z,69.77
2022-11-24T17:08:55.274Z,69.74
2022-11-24T17:11:04.558Z,70.01
2022-11-24T17:13:03.451Z,69.86
2022-11-24T17:14:29.343Z,69.75
2022-11-24T17:16:01.340Z,69.64
2022-11-24T17:17:31.316Z,69.51
2022-11-24T17:19:02.036Z,69.73
2022-11-24T17:20:47.757Z,69.81
2022-11-24T17:22:18.031Z,69.71
2022-11-24T17:23:46.249Z,69.80
2022-11-24T17:25:11.546Z,70.06
2022-11-24T17:26:36.092Z,69.76
2022-11-24T17:29:01.033Z,69.83
2022-11-24T17:34:12.812Z,69.67
2022-11-24T17:36:04.894Z,69.60
2022-11-24T17:37:32.370Z,69.66
2022-11-24T17:38:54.241Z,69.88
2022-11-24T17:40:28.271Z,69.93
2022-11-24T17:42:03.966Z,69.64
2022-11-24T17:43:36.888Z,69.69
2022-11-24T17:45:02.052Z,69.91
2022-11-24T17:47:39.906Z,69.68
2022-11-24T17:52:43.473Z,69.44
2022-11-24T18:00:09.411Z,69.75
2022-11-24T18:01:39.660Z,69.60
2022-11-24T18:03:21.612Z,69.74
2022-11-24T18:04:47.191Z,69.80
2022-11-24T18:06:18.527Z,70.01
2022-11-24T18:07:43.378Z,70.17
2022-11-24T18:09:09.470Z,70.20
2022-11-24T18:10:38.770Z,70.21
2022-11-24T18:12:17.046Z,70.36
2022-11-24T18:13:56.603Z,70.37
2022-11-24T18:15:25.585Z,70.50
2022-11-24T18:16:53.344Z,70.52
2022-11-24T18:18:14.945Z,70.52
2022-11-24T18:22:50.077Z,70.27
2022-11-24T18:24:24.227Z,70.57
2022-11-24T18:26:01.981Z,70.48
2022-11-24T18:31:25.375Z,70.49
2022-11-24T18:33:24.680Z,70.39
2022-11-24T18:35:21.476Z,70.53
2022-11-24T18:36:53.634Z,70.33
2022-11-24T18:38:36.039Z,70.61
2022-11-24T18:40:16.229Z,70.70
2022-11-24T18:41:58.325Z,70.74
2022-11-24T18:43:20.971Z,70.98
2022-11-24T18:44:55.838Z,70.75
2022-11-24T18:47:24.879Z,70.81
2022-11-24T18:49:16.312Z,70.73
2022-11-24T18:51:15.079Z,70.67
2022-11-24T18:52:40.578Z,70.67
2022-11-24T18:54:06.946Z,70.68
2022-11-24T18:55:30.792Z,70.70
2022-11-24T18:56:53.386Z,70.42
2022-11-24T18:58:16.136Z,70.71
2022-11-24T18:59:38.496Z,70.57
2022-11-24T19:01:07.661Z,70.69
2022-11-24T19:02:30.254Z,70.51
2022-11-24T19:03:57.800Z,70.56
2022-11-24T19:05:27.531Z,70.27
2022-11-24T19:06:50.304Z,70.53
2022-11-24T19:08:12.584Z,70.61
2022-11-24T19:09:34.631Z,70.35
2022-11-24T19:10:58.128Z,70.61
2022-11-24T19:12:20.319Z,70.26
2022-11-24T19:13:42.417Z,70.40
2022-11-24T19:15:05.005Z,70.44
2022-11-24T19:16:27.877Z,70.22
2022-11-24T19:17:50.429Z,70.06
2022-11-24T19:19:15.435Z,70.34
2022-11-24T19:20:38.319Z,70.17
2022-11-24T19:22:03.129Z,70.24
2022-11-24T19:23:25.533Z,70.13
2022-11-24T19:24:47.917Z,69.97
2022-11-24T19:26:11.411Z,69.99
2022-11-24T19:27:35.479Z,70.13
2022-11-24T19:28:58.189Z,69.88
2022-11-24T19:30:20.923Z,69.89
2022-11-24T19:31:44.067Z,69.91
2022-11-24T19:33:08.565Z,69.99
2022-11-24T19:34:30.905Z,69.96
2022-11-24T19:36:00.872Z,69.92
2022-11-24T19:37:23.658Z,69.87
2022-11-24T19:38:51.351Z,69.78
2022-11-24T19:40:14.701Z,69.72
2022-11-24T19:41:38.303Z,69.66
2022-11-24T19:43:00.317Z,69.74
2022-11-24T19:44:25.571Z,69.93
2022-11-24T19:45:47.664Z,69.85
2022-11-24T19:47:11.755Z,69.77
2022-11-24T19:48:34.721Z,69.76
2022-11-24T19:49:57.215Z,69.68
2022-11-24T19:51:21.349Z,69.75
2022-11-24T19:53:01.626Z,69.71
2022-11-24T19:54:24.947Z,69.66
2022-11-24T19:55:48.986Z,69.81
2022-11-24T19:57:12.816Z,69.87
2022-11-24T19:58:36.823Z,69.67
2022-11-24T19:59:59.558Z,69.83
2022-11-24T20:01:23.374Z,69.81
2022-11-24T20:02:45.808Z,69.87
2022-11-24T20:04:10.504Z,69.81
2022-11-24T20:05:35.378Z,69.81
2022-11-24T20:07:00.413Z,69.86
2022-11-24T20:08:23.681Z,69.65
2022-11-24T20:09:47.483Z,69.79
2022-11-24T20:11:11.445Z,69.71
2022-11-24T20:12:35.655Z,69.57
2022-11-24T20:13:58.996Z,69.51
2022-11-24T20:15:24.038Z,69.91
2022-11-24T20:16:47.948Z,69.79
2022-11-24T20:18:10.698Z,69.74
2022-11-24T20:19:32.891Z,69.89
2022-11-24T20:20:55.154Z,70.17
2022-11-24T20:22:17.474Z,70.49
2022-11-24T20:23:46.360Z,70.33
2022-11-24T20:25:16.584Z,70.06
2022-11-24T20:26:43.956Z,70.45
2022-11-24T20:28:08.391Z,70.43
2022-11-24T20:29:34.426Z,70.52
2022-11-24T20:31:15.348Z,70.32
2022-11-24T20:32:40.667Z,70.45
2022-11-24T20:34:04.354Z,70.48
2022-11-24T20:35:26.348Z,70.60
2022-11-24T20:36:49.666Z,70.59
2022-11-24T20:38:11.683Z,70.49
2022-11-24T20:39:33.588Z,70.64
2022-11-24T20:41:08.953Z,70.53
2022-11-24T20:42:32.848Z,70.52
2022-11-24T20:44:08.722Z,70.65
2022-11-24T20:45:37.453Z,70.67
2022-11-24T20:47:01.427Z,70.55
2022-11-24T20:48:22.642Z,70.53
2022-11-24T20:49:47.791Z,70.57
2022-11-24T20:51:10.879Z,70.43
2022-11-24T20:52:35.138Z,70.54
2022-11-24T20:54:02.716Z,70.40
2022-11-24T20:55:25.183Z,70.39
2022-11-24T20:56:48.742Z,70.20
2022-11-24T20:58:28.498Z,70.36
2022-11-24T21:00:10.403Z,70.20
2022-11-24T21:01:42.771Z,70.17
2022-11-24T21:03:14.075Z,70.21
2022-11-24T21:04:47.711Z,70.32
2022-11-24T21:06:22.575Z,70.31
2022-11-24T21:07:45.221Z,70.36
2022-11-24T21:09:14.097Z,70.09
2022-11-24T21:10:50.911Z,70.15
2022-11-24T21:12:23.696Z,70.22
2022-11-24T21:13:47.873Z,70.39
2022-11-24T21:15:39.493Z,70.19
2022-11-24T21:17:05.296Z,70.35
2022-11-24T21:18:56.842Z,70.20
2022-11-24T21:20:29.826Z,70.33
2022-11-24T21:22:07.866Z,70.25
2022-11-24T21:23:30.645Z,70.07
2022-11-24T21:25:36.056Z,70.36
2022-11-24T21:27:24.494Z,70.25
2022-11-24T21:29:01.725Z,70.16
2022-11-24T21:30:28.222Z,70.10
2022-11-24T21:32:15.917Z,70.18
2022-11-24T21:33:58.034Z,70.16
2022-11-24T21:35:26.820Z,69.97
2022-11-24T21:36:52.614Z,69.82
2022-11-24T21:38:15.386Z,70.00
2022-11-24T21:39:37.831Z,70.10
2022-11-24T21:41:00.943Z,70.15
2022-11-24T21:42:26.214Z,70.01
2022-11-24T21:43:51.945Z,69.89
2022-11-24T21:45:16.573Z,69.97
2022-11-24T21:46:45.687Z,69.92
2022-11-24T21:48:10.042Z,69.95
2022-11-24T21:49:35.685Z,69.80
2022-11-24T21:51:06.124Z,69.79
2022-11-24T21:52:29.171Z,69.71
2022-11-24T21:53:51.612Z,69.64
2022-11-24T21:55:32.206Z,69.82
2022-11-24T21:56:55.887Z,69.74
2022-11-24T21:58:26.999Z,69.67
2022-11-24T22:00:06.142Z,69.67
2022-11-24T22:01:34.885Z,69.63
2022-11-24T22:02:57.525Z,69.58
2022-11-24T22:04:19.441Z,69.64
2022-11-24T22:05:41.841Z,69.63
2022-11-24T22:07:10.172Z,69.49
2022-11-24T22:08:32.609Z,69.61
2022-11-24T22:10:02.046Z,69.73
2022-11-24T22:11:33.001Z,69.58
2022-11-24T22:12:58.110Z,69.40
2022-11-24T22:14:22.921Z,69.49
2022-11-24T22:15:48.319Z,69.74
2022-11-24T22:17:16.979Z,69.42
2022-11-24T22:18:48.173Z,69.19
2022-11-24T22:20:13.499Z,69.43
2022-11-24T22:21:39.930Z,69.26
2022-11-24T22:23:00.820Z,69.11
2022-11-24T22:24:28.185Z,69.08
2022-11-24T22:25:52.008Z,69.18
2022-11-24T22:27:13.847Z,69.13
2022-11-24T22:28:37.212Z,69.24
2022-11-24T22:29:59.539Z,69.29
2022-11-24T22:31:22.775Z,69.32
2022-11-24T22:32:44.870Z,69.28
2022-11-24T22:34:08.888Z,69.42
2022-11-24T22:35:29.789Z,69.26
2022-11-24T22:36:51.758Z,69.38
2022-11-24T22:38:14.011Z,69.37
2022-11-24T22:39:35.718Z,69.32
2022-11-24T22:41:02.878Z,69.38
2022-11-24T22:42:27.631Z,69.23
2022-11-24T22:43:50.455Z,69.36
2022-11-24T22:45:12.909Z,69.29
2022-11-24T22:46:35.370Z,69.20
2022-11-24T22:47:58.404Z,69.29
2022-11-24T22:49:21.818Z,69.49
2022-11-24T22:50:42.937Z,69.30
2022-11-24T22:52:05.481Z,69.27
2022-11-24T22:53:26.733Z,69.23
2022-11-24T23:01:37.810Z,69.19
2022-11-24T23:03:01.813Z,69.06
2022-11-24T23:04:25.630Z,69.24
2022-11-24T23:05:46.855Z,69.38
2022-11-24T23:07:09.930Z,69.26
2022-11-24T23:08:33.338Z,69.35
2022-11-24T23:09:58.444Z,69.48
2022-11-24T23:11:31.686Z,69.50
2022-11-24T23:12:57.804Z,69.68
2022-11-24T23:14:20.882Z,69.63
2022-11-24T23:15:43.345Z,69.74
2022-11-24T23:17:10.167Z,69.65
2022-11-24T23:18:40.996Z,69.46
2022-11-24T23:20:08.816Z,69.74
2022-11-24T23:21:33.679Z,69.70
2022-11-24T23:23:00.018Z,69.88
2022-11-24T23:24:22.379Z,69.72
2022-11-24T23:25:43.386Z,69.80
2022-11-24T23:27:06.364Z,69.80
2022-11-24T23:31:09.353Z,69.66
2022-11-24T23:32:30.735Z,69.82
2022-11-24T23:33:55.724Z,69.78
2022-11-24T23:35:27.806Z,69.97
2022-11-24T23:36:50.217Z,69.95
2022-11-24T23:40:29.965Z,69.97
2022-11-24T23:41:51.197Z,70.01
2022-11-24T23:43:14.273Z,69.83
2022-11-24T23:44:36.745Z,70.23
2022-11-24T23:46:03.521Z,70.14
2022-11-24T23:47:25.621Z,70.31
2022-11-24T23:48:47.516Z,70.19
2022-11-24T23:50:10.389Z,70.21
2022-11-24T23:51:35.231Z,70.24
2022-11-24T23:52:56.390Z,70.38
2022-11-24T23:54:18.663Z,70.44
2022-11-24T23:55:39.690Z,70.42
2022-11-24T23:57:02.115Z,70.37
2022-11-24T23:58:22.711Z,70.49
2022-11-24T23:59:45.851Z,70.33
